Time;durP1;ratioP1;P1;durP2;ratioP2;P2;SDS_P1;SDS_P2;PMS_P1;PMS_P2;Temp;Humidity;BMP_temperature;BMP_pressure;BME280_temperature;BME280_humidity;BME280_pressure;Samples;Min_cycle;Max_cycle;Signal;HPM_P1;HPM_P2
2023/07/28 00:02:17;;;;;;;0.80;0.80;;;;;15.60;95368.00;;;;5053523;28;20184;-56
2023/07/28 00:04:44;;;;;;;0.60;0.60;;;;;15.60;95375.00;;;;5053493;28;20192;-56
2023/07/28 00:07:12;;;;;;;1.30;1.20;;;;;15.70;95366.00;;;;5052553;28;20253;-56
2023/07/28 00:09:39;;;;;;;0.50;0.50;;;;;15.70;95366.00;;;;5053198;28;20196;-56
2023/07/28 00:12:07;;;;;;;1.13;1.03;;;;;15.70;95376.00;;;;5052590;28;20224;-56
2023/07/28 00:14:35;;;;;;;0.90;0.90;;;;;15.70;95373.00;;;;5052552;28;20196;-56
2023/07/28 00:17:02;;;;;;;0.80;0.80;;;;;15.60;95371.00;;;;5052536;28;20212;-56
2023/07/28 00:19:31;;;;;;;4.70;1.27;;;;;15.60;95362.00;;;;5034750;28;20793;-56
2023/07/28 00:21:59;;;;;;;0.60;0.60;;;;;15.60;95363.00;;;;5052990;28;20193;-56
2023/07/28 00:24:26;;;;;;;0.60;0.60;;;;;15.50;95374.00;;;;5034640;28;20200;-56
2023/07/28 00:26:54;;;;;;;0.73;0.73;;;;;15.40;95372.00;;;;5052479;28;20216;-56
2023/07/28 00:29:21;;;;;;;0.70;0.70;;;;;15.40;95371.00;;;;5052510;28;20265;-56
2023/07/28 00:31:48;;;;;;;0.73;0.73;;;;;15.40;95364.00;;;;5052475;28;20196;-55
2023/07/28 00:34:16;;;;;;;0.83;0.83;;;;;15.40;95366.00;;;;5052560;28;20223;-55
2023/07/28 00:36:45;;;;;;;0.97;0.97;;;;;15.40;95357.00;;;;5052290;28;20590;-56
2023/07/28 00:39:12;;;;;;;0.60;0.60;;;;;15.50;95354.00;;;;5053039;28;20624;-56
2023/07/28 00:41:40;;;;;;;0.97;0.97;;;;;15.40;95358.00;;;;5052537;28;20196;-56
2023/07/28 00:44:07;;;;;;;0.90;0.90;;;;;15.30;95352.00;;;;5034409;28;20559;-55
2023/07/28 00:46:34;;;;;;;0.70;0.70;;;;;15.20;95351.00;;;;5052212;28;20219;-56
2023/07/28 00:49:03;;;;;;;0.80;0.80;;;;;15.20;95352.00;;;;5055255;28;20196;-56
2023/07/28 00:51:32;;;;;;;0.67;0.67;;;;;15.20;95356.00;;;;5056058;28;20211;-55
2023/07/28 00:54:01;;;;;;;2.83;0.93;;;;;15.10;95356.00;;;;5055923;28;20577;-56
2023/07/28 00:56:29;;;;;;;0.50;0.50;;;;;15.10;95352.00;;;;5056154;28;20216;-55
2023/07/28 00:58:57;;;;;;;1.10;1.10;;;;;15.10;95360.00;;;;5055868;28;20203;-56
2023/07/28 01:01:25;;;;;;;1.20;1.10;;;;;15.20;95350.00;;;;5056144;28;20192;-56
2023/07/28 01:03:53;;;;;;;0.80;0.80;;;;;15.10;95352.00;;;;5056158;28;20631;-55
2023/07/28 01:06:27;;;;;;;2.43;1.03;;;;;15.10;95349.00;;;;5055732;28;20218;-56
2023/07/28 01:09:00;;;;;;;1.00;1.00;;;;;15.00;95360.00;;;;5056324;28;20693;-56
2023/07/28 01:11:29;;;;;;;0.80;0.80;;;;;15.00;95350.00;;;;5055989;28;20193;-56
2023/07/28 01:13:57;;;;;;;0.57;0.57;;;;;15.00;95348.00;;;;5055624;28;20220;-56
2023/07/28 01:16:24;;;;;;;0.70;0.70;;;;;14.90;95354.00;;;;5055570;28;20207;-55
2023/07/28 01:18:52;;;;;;;1.20;0.73;;;;;15.00;95352.00;;;;5055590;28;20196;-56
2023/07/28 01:21:26;;;;;;;6.67;1.13;;;;;15.00;95363.00;;;;5055803;28;20539;-55
2023/07/28 01:24:01;;;;;;;0.73;0.73;;;;;15.00;95366.00;;;;5055733;28;20183;-55
2023/07/28 01:26:35;;;;;;;0.70;0.70;;;;;15.00;95362.00;;;;5037482;28;20663;-55
2023/07/28 01:29:04;;;;;;;0.60;0.60;;;;;15.00;95353.00;;;;5055431;28;20196;-56
2023/07/28 01:31:32;;;;;;;0.97;0.97;;;;;14.90;95350.00;;;;5055397;28;20206;-55
2023/07/28 01:33:59;;;;;;;1.07;1.07;;;;;14.90;95342.00;;;;5055494;28;20223;-56
2023/07/28 01:36:26;;;;;;;31.60;1.67;;;;;14.80;95347.00;;;;5055176;28;20698;-55
2023/07/28 01:38:54;;;;;;;0.50;0.50;;;;;14.80;95343.00;;;;5055158;28;20196;-56
2023/07/28 01:41:21;;;;;;;0.63;0.63;;;;;14.80;95346.00;;;;5055379;28;20246;-55
2023/07/28 01:43:50;;;;;;;0.80;0.80;;;;;14.70;95327.00;;;;5055100;28;20555;-55
2023/07/28 01:46:18;;;;;;;0.60;0.60;;;;;14.70;95327.00;;;;5055244;28;20216;-56
2023/07/28 01:48:45;;;;;;;0.70;0.70;;;;;14.80;95333.00;;;;5055004;28;20664;-55
2023/07/28 01:51:12;;;;;;;0.83;0.83;;;;;14.50;95335.00;;;;5054970;28;20219;-55
2023/07/28 01:53:40;;;;;;;0.77;0.77;;;;;14.50;95328.00;;;;5054837;28;20216;-55
2023/07/28 01:56:07;;;;;;;0.70;0.67;;;;;14.60;95316.00;;;;5054779;28;20216;-56
2023/07/28 01:58:35;;;;;;;0.60;0.60;;;;;14.60;95314.00;;;;5054262;28;20192;-55
2023/07/28 02:01:03;;;;;;;0.80;0.80;;;;;14.60;95313.00;;;;5054745;28;20196;-55
2023/07/28 02:03:31;;;;;;;0.70;0.70;;;;;14.50;95307.00;;;;5054727;28;20686;-55
2023/07/28 02:05:58;;;;;;;0.90;0.90;;;;;14.70;95314.00;;;;5054532;28;20699;-55
2023/07/28 02:08:26;;;;;;;0.50;0.50;;;;;14.70;95312.00;;;;5054804;28;20542;-55
2023/07/28 02:10:55;;;;;;;0.60;0.60;;;;;14.60;95310.00;;;;5054556;28;20192;-56
2023/07/28 02:13:22;;;;;;;1.27;1.17;;;;;14.40;95309.00;;;;5054381;28;20282;-55
2023/07/28 02:15:49;;;;;;;0.90;0.90;;;;;14.40;95320.00;;;;5054358;28;20699;-55
2023/07/28 02:18:18;;;;;;;0.50;0.50;;;;;14.40;95317.00;;;;5036549;28;20196;-55
2023/07/28 02:20:48;;;;;;;0.60;0.60;;;;;14.40;95320.00;;;;5054386;28;20199;-55
2023/07/28 02:23:15;;;;;;;0.80;0.80;;;;;14.40;95330.00;;;;5036438;28;20536;-56
2023/07/28 02:25:43;;;;;;;0.90;0.90;;;;;14.40;95323.00;;;;5054478;28;20196;-56
2023/07/28 02:28:12;;;;;;;0.60;0.60;;;;;14.30;95328.00;;;;5054267;28;20192;-55
2023/07/28 02:30:39;;;;;;;0.70;0.70;;;;;14.20;95330.00;;;;5036299;28;20692;-55
2023/07/28 02:33:07;;;;;;;1.67;1.57;;;;;14.20;95302.00;;;;5054320;28;20242;-53
2023/07/28 02:35:36;;;;;;;0.70;0.70;;;;;14.20;95324.00;;;;5053932;28;20207;-53
2023/07/28 02:38:03;;;;;;;0.93;0.93;;;;;14.20;95324.00;;;;5054280;28;20602;-55
2023/07/28 02:40:32;;;;;;;0.67;0.67;;;;;14.30;95327.00;;;;5053978;28;20195;-55
2023/07/28 02:43:00;;;;;;;0.90;0.90;;;;;14.40;95321.00;;;;5054231;28;20552;-55
2023/07/28 02:45:27;;;;;;;0.80;0.80;;;;;14.50;95333.00;;;;5053888;28;20199;-56
2023/07/28 02:47:55;;;;;;;1.33;1.23;;;;;14.50;95337.00;;;;5053862;28;20218;-56
2023/07/28 02:50:23;;;;;;;0.73;0.73;;;;;14.50;95337.00;;;;5054193;28;20542;-55
2023/07/28 02:52:51;;;;;;;0.90;0.90;;;;;14.50;95338.00;;;;5053900;28;20604;-54
2023/07/28 02:55:19;;;;;;;0.77;0.77;;;;;14.60;95348.00;;;;5053703;28;20192;-53
2023/07/28 02:57:46;;;;;;;0.80;0.80;;;;;14.60;95350.00;;;;5053779;28;20703;-53
2023/07/28 03:00:14;;;;;;;0.87;0.87;;;;;14.60;95360.00;;;;5053550;28;20681;-54
2023/07/28 03:02:42;;;;;;;0.60;0.60;;;;;14.60;95356.00;;;;5053562;28;20200;-53
2023/07/28 03:05:09;;;;;;;0.60;0.60;;;;;14.60;95345.00;;;;5053466;28;20195;-53
2023/07/28 03:07:37;;;;;;;1.53;1.43;;;;;14.70;95346.00;;;;5053349;28;20215;-53
2023/07/28 03:10:07;;;;;;;1.33;1.33;;;;;14.70;95364.00;;;;5053292;28;20202;-54
2023/07/28 03:12:34;;;;;;;1.87;1.47;;;;;14.60;95367.00;;;;5053319;28;20196;-53
2023/07/28 03:15:02;;;;;;;1.20;1.20;;;;;14.50;95362.00;;;;5053955;28;20223;-54
2023/07/28 03:17:29;;;;;;;0.83;0.83;;;;;14.50;95356.00;;;;5053475;28;20560;-54
2023/07/28 03:19:56;;;;;;;1.30;1.30;;;;;14.60;95365.00;;;;5053773;28;20192;-54
2023/07/28 03:22:24;;;;;;;0.47;0.47;;;;;14.60;95371.00;;;;5053246;28;20196;-54
2023/07/28 03:24:51;;;;;;;0.90;0.90;;;;;14.60;95366.00;;;;5053432;28;20571;-54
2023/07/28 03:27:20;;;;;;;0.60;0.60;;;;;14.70;95366.00;;;;5053097;28;20216;-54
2023/07/28 03:29:47;;;;;;;0.60;0.60;;;;;14.70;95377.00;;;;5053402;28;20512;-54
2023/07/28 03:32:15;;;;;;;1.17;1.17;;;;;14.80;95387.00;;;;5053071;28;20246;-54
2023/07/28 03:34:42;;;;;;;0.80;0.80;;;;;14.80;95388.00;;;;5052920;28;20238;-54
2023/07/28 03:37:10;;;;;;;0.60;0.60;;;;;14.80;95381.00;;;;5052728;28;20703;-54
2023/07/28 03:39:37;;;;;;;0.70;0.70;;;;;14.80;95378.00;;;;5052894;28;20211;-54
2023/07/28 03:42:05;;;;;;;1.00;1.00;;;;;14.80;95377.00;;;;5053071;28;20196;-54
2023/07/28 03:44:34;;;;;;;0.80;0.80;;;;;14.90;95380.00;;;;5053112;28;20580;-54
2023/07/28 03:47:01;;;;;;;0.93;0.93;;;;;14.80;95377.00;;;;5052807;28;20258;-55
2023/07/28 03:49:29;;;;;;;9.33;1.27;;;;;14.80;95388.00;;;;5052819;28;20196;-55
2023/07/28 03:51:56;;;;;;;0.97;0.97;;;;;14.90;95381.00;;;;5052758;28;20192;-55
2023/07/28 03:54:23;;;;;;;1.00;1.00;;;15.60;91.80;14.90;95389.00;;;;5052654;28;20216;-55
2023/07/28 03:56:51;;;;;;;0.97;0.97;;;15.50;94.50;14.80;95396.00;;;;5052913;28;20208;-55
2023/07/28 03:59:18;;;;;;;1.10;1.10;;;15.50;94.10;14.80;95395.00;;;;5052655;28;20314;-55
2023/07/28 04:01:47;;;;;;;0.70;0.70;;;15.50;94.60;14.80;95396.00;;;;5052650;28;20188;-55
2023/07/28 04:04:14;;;;;;;0.87;0.87;;;15.50;95.20;14.80;95397.00;;;;5052635;28;20754;-55
2023/07/28 04:06:43;;;;;;;0.73;0.73;;;15.50;95.80;14.80;95390.00;;;;5052558;28;20215;-55
2023/07/28 04:09:11;;;;;;;0.70;0.70;;;15.50;95.60;14.90;95403.00;;;;5052568;28;20185;-55
2023/07/28 04:11:39;;;;;;;0.63;0.63;;;15.50;97.20;15.00;95396.00;;;;5052544;28;20188;-55
2023/07/28 04:14:06;;;;;;;0.80;0.80;;;15.60;99.90;14.80;95393.00;;;;5052480;28;20215;-55
2023/07/28 04:16:33;;;;;;;0.87;0.87;;;15.60;99.90;14.70;95393.00;;;;5052497;28;20295;-55
2023/07/28 04:19:02;;;;;;;0.93;0.93;;;15.50;99.90;14.60;95389.00;;;;5052766;28;20582;-55
2023/07/28 04:21:29;;;;;;;0.60;0.60;;;15.50;99.90;14.70;95388.00;;;;5053602;28;20195;-55
2023/07/28 04:23:56;;;;;;;0.60;0.60;;;15.40;99.90;14.70;95356.00;;;;5056499;28;20195;-55
2023/07/28 04:26:25;;;;;;;0.50;0.50;;;15.40;99.90;14.70;95373.00;;;;5056378;28;20706;-54
2023/07/28 04:28:52;;;;;;;0.40;0.40;;;15.40;99.90;14.70;95367.00;;;;5056690;28;20195;-55
2023/07/28 04:31:19;;;;;;;0.53;0.53;;;15.40;99.90;14.60;95378.00;;;;5056663;28;20561;-55
2023/07/28 04:33:46;;;;;;;0.60;0.60;;;15.40;99.90;14.70;95382.00;;;;5056762;28;20215;-55
2023/07/28 04:36:15;;;;;;;0.77;0.77;;;15.40;99.90;14.80;95382.00;;;;5056136;28;20222;-55
2023/07/28 04:38:42;;;;;;;21.87;1.53;;;15.40;99.90;14.80;95371.00;;;;5056583;28;20247;-54
2023/07/28 04:41:09;;;;;;;0.60;0.60;;;;;14.90;95367.00;;;;5056222;28;20188;-56
2023/07/28 04:43:37;;;;;;;1.27;1.27;;;;;15.00;95368.00;;;;5056136;28;20195;-55
2023/07/28 04:46:04;;;;;;;1.07;1.07;;;;;15.10;95369.00;;;;5056000;28;20215;-55
2023/07/28 04:48:32;;;;;;;0.90;0.90;;;;;15.00;95364.00;;;;5056046;28;20670;-55
2023/07/28 04:50:59;;;;;;;0.67;0.67;;;;;15.10;95372.00;;;;5055999;28;20678;-55
2023/07/28 04:53:28;;;;;;;1.00;1.00;;;;;15.10;95371.00;;;;5056140;28;20188;-56
2023/07/28 04:55:55;;;;;;;1.03;0.80;;;;;15.00;95370.00;;;;5056013;28;20204;-56
2023/07/28 04:58:23;;;;;;;0.77;0.77;;;;;15.00;95368.00;;;;5055811;28;20207;-55
2023/07/28 05:00:50;;;;;;;0.90;0.90;;;;;15.10;95376.00;;;;5055901;28;20199;-54
2023/07/28 05:03:18;;;;;;;1.07;1.07;;;;;15.10;95387.00;;;;5055750;28;20199;-55
2023/07/28 05:05:45;;;;;;;0.67;0.67;;;;;15.00;95387.00;;;;5055790;28;20655;-55
2023/07/28 05:08:13;;;;;;;0.83;0.83;;;;;15.00;95390.00;;;;5055667;28;20681;-55
2023/07/28 05:10:43;;;;;;;0.73;0.73;;;;;15.00;95392.00;;;;5055640;28;20196;-55
2023/07/28 05:13:10;;;;;;;0.83;0.83;;;;;14.90;95391.00;;;;5055566;28;20199;-56
2023/07/28 05:15:38;;;;;;;2.60;2.40;;;;;14.90;95386.00;;;;5055734;28;20220;-55
2023/07/28 05:18:05;;;;;;;3.83;3.50;;;;;14.90;95390.00;;;;5055543;28;20688;-55
2023/07/28 05:20:32;;;;;;;0.80;0.80;;;;;14.90;95400.00;;;;5056259;28;20196;-55
2023/07/28 05:23:00;;;;;;;1.07;1.07;;;;;15.00;95401.00;;;;5055500;28;20188;-55
2023/07/28 05:25:27;;;;;;;0.70;0.70;;;;;15.10;95401.00;;;;5055439;28;20274;-56
2023/07/28 05:27:56;;;;;;;0.73;0.73;;;;;15.20;95399.00;;;;5055389;28;20280;-56
2023/07/28 05:30:24;;;;;;;0.60;0.60;;;;;15.20;95395.00;;;;5055577;28;20238;-55
2023/07/28 05:32:51;;;;;;;1.50;1.40;;;;;15.30;95407.00;;;;5055002;28;20203;-56
2023/07/28 05:35:20;;;;;;;1.00;1.00;;;;;15.40;95404.00;;;;5054875;28;20216;-56
2023/07/28 05:37:47;;;;;;;0.77;0.77;;;;;15.40;95412.00;;;;5055060;28;20226;-55
2023/07/28 05:40:15;;;;;;;2.40;2.03;;;;;15.40;95410.00;;;;5055161;28;20271;-56
2023/07/28 05:42:42;;;;;;;0.70;0.70;;;;;15.40;95427.00;;;;5055106;28;20230;-55
2023/07/28 05:45:12;;;;;;;0.83;0.83;;;;;15.30;95429.00;;;;5055048;28;20188;-55
2023/07/28 05:47:39;;;;;;;0.47;0.47;;;;;15.30;95430.00;;;;5054974;28;20220;-55
2023/07/28 05:50:08;;;;;;;0.70;0.70;;;;;15.20;95427.00;;;;5055184;28;20663;-56
2023/07/28 05:52:36;;;;;;;0.50;0.50;;;;;15.20;95433.00;;;;5036952;28;20566;-55
2023/07/28 05:55:03;;;;;;;0.73;0.73;;;;;15.20;95437.00;;;;5054763;28;20223;-55
2023/07/28 05:57:32;;;;;;;0.93;0.93;;;;;15.30;95430.00;;;;5054731;28;20303;-55
2023/07/28 05:59:59;;;;;;;1.10;1.10;;;;;15.30;95436.00;;;;5054973;28;20192;-56
2023/07/28 06:02:28;;;;;;;0.80;0.80;;;;;15.30;95433.00;;;;5054760;28;20196;-56
2023/07/28 06:04:56;;;;;;;0.63;0.63;;;;;15.40;95442.00;;;;5054670;28;20770;-56
2023/07/28 06:07:23;;;;;;;1.50;1.40;;;;;15.30;95444.00;;;;5051737;28;20570;-54
2023/07/28 06:09:51;;;;;;;0.60;0.60;;;;;15.30;95439.00;;;;5044808;28;20220;-54
2023/07/28 06:12:18;;;;;;;0.77;0.77;;;;;15.40;95445.00;;;;5048950;28;20205;-55
2023/07/28 06:14:46;;;;;;;0.87;0.87;;;;;15.40;95444.00;;;;5052279;28;20207;-55
2023/07/28 06:17:13;;;;;;;0.70;0.70;;;;;15.40;95449.00;;;;5052899;28;20211;-55
2023/07/28 06:19:42;;;;;;;0.50;0.50;;;;;15.40;95453.00;;;;5052160;28;20214;-56
2023/07/28 06:22:10;;;;;;;0.80;0.80;;;;;15.30;95454.00;;;;5052702;28;20254;-55
2023/07/28 06:24:37;;;;;;;0.90;0.90;;;;;15.30;95442.00;;;;5046230;28;20227;-55
2023/07/28 06:27:08;;;;;;;0.80;0.80;;;;;15.40;95436.00;;;;5043756;28;20239;-54
2023/07/28 06:29:35;;;;;;;0.97;0.97;;;;;15.60;95404.00;;;;5048780;28;20275;-55
2023/07/28 06:32:03;;;;;;;0.63;0.63;;;;;15.70;95427.00;;;;5032709;28;20228;-55
2023/07/28 06:34:31;;;;;;;0.77;0.77;;;;;15.80;95429.00;;;;5046927;28;20216;-56
2023/07/28 06:36:59;;;;;;;0.97;0.97;;;;;15.80;95425.00;;;;5052229;28;20223;-55
2023/07/28 06:39:28;;;;;;;0.87;0.87;;;;;16.00;95436.00;;;;5051664;28;20196;-55
2023/07/28 06:41:55;;;;;;;1.43;1.23;;;;;16.20;95442.00;;;;5052202;28;20629;-55
2023/07/28 06:44:23;;;;;;;0.87;0.87;;;;;16.40;95429.00;;;;5051532;28;20682;-56
2023/07/28 06:46:51;;;;;;;0.70;0.70;;;;;16.50;95434.00;;;;5052143;28;20273;-56
2023/07/28 06:49:18;;;;;;;0.80;0.80;;;;;16.30;95435.00;;;;5051845;28;20207;-54
2023/07/28 06:51:46;;;;;;;1.73;0.93;;;;;16.50;95448.00;;;;5032703;28;20204;-55
2023/07/28 06:54:14;;;;;;;0.80;0.80;;;;;16.70;95441.00;;;;5051001;28;20192;-55
2023/07/28 06:56:42;;;;;;;0.90;0.90;;;;;16.90;95439.00;;;;5044608;28;20266;-55
2023/07/28 06:59:10;;;;;;;0.60;0.60;;;;;17.20;95441.00;;;;5031811;28;20205;-56
2023/07/28 07:01:37;;;;;;;0.87;0.87;;;;;17.40;95448.00;;;;5031755;28;20209;-56
2023/07/28 07:04:06;;;;;;;0.70;0.70;;;;;17.60;95449.00;;;;5031927;28;20214;-56
2023/07/28 07:06:33;;;;;;;0.90;0.90;;;;;17.60;95458.00;;;;5031596;28;20251;-57
2023/07/28 07:09:01;;;;;;;0.83;0.83;;;;;17.70;95448.00;;;;5031981;28;20694;-55
2023/07/28 07:11:31;;;;;;;0.70;0.70;;;;;17.90;95461.00;;;;5031463;28;20220;-56
2023/07/28 07:13:58;;;;;;;0.70;0.70;;;;;17.80;95453.00;;;;5031421;28;20203;-55
2023/07/28 07:16:26;;;;;;;0.97;0.97;;;;;17.70;95445.00;;;;5031345;28;20299;-56
2023/07/28 07:18:54;;;;;;;0.60;0.60;;;;;17.90;95452.00;;;;5040393;28;20192;-56
2023/07/28 07:21:21;;;;;;;0.50;0.50;;;;;17.70;95453.00;;;;5050305;28;20257;-54
2023/07/28 07:23:49;;;;;;;0.60;0.60;;;;;17.80;95459.00;;;;5014607;28;20228;-56
2023/07/28 07:26:16;;;;;;;0.57;0.57;;;;;17.90;95461.00;;;;5031263;28;20219;-55
2023/07/28 07:28:45;;;;;;;0.57;0.57;;;;;17.80;95451.00;;;;5049548;28;20687;-56
2023/07/28 07:31:14;;;;;;;0.70;0.70;;;;;17.90;95461.00;;;;5033298;28;20206;-56
2023/07/28 07:33:42;;;;;;;0.73;0.73;;;;;18.00;95462.00;;;;5051215;28;20647;-56
2023/07/28 07:36:14;;;;;;;0.77;0.77;;;;;18.00;95465.00;;;;5031798;28;20225;-56
2023/07/28 07:38:41;;;;;;;0.43;0.43;;;;;17.90;95466.00;;;;5031082;28;20195;-56
2023/07/28 07:41:11;;;;;;;1.20;1.07;;;;;17.90;95469.00;;;;5050989;28;20203;-56
2023/07/28 07:43:38;;;;;;;0.60;0.60;;;;;17.90;95473.00;;;;5051455;28;20253;-56
2023/07/28 07:46:08;;;;;;;0.73;0.73;;;;;17.90;95479.00;;;;5051297;28;20216;-56
2023/07/28 07:48:35;;;;;;;0.93;0.93;;;;;18.10;95481.00;;;;5050542;28;20274;-56
2023/07/28 07:51:03;;;;;;;1.70;1.60;;;;;18.40;95472.00;;;;5051282;28;20603;-56
2023/07/28 07:53:30;;;;;;;0.70;0.70;;;;;18.70;95486.00;;;;5032602;28;20291;-56
2023/07/28 07:55:58;;;;;;;0.80;0.80;;;;;18.80;95503.00;;;;5040022;28;20252;-56
2023/07/28 07:58:26;;;;;;;0.50;0.50;;;;;18.90;95496.00;;;;5030498;28;20291;-56
2023/07/28 08:00:53;;;;;;;0.63;0.63;;;;;18.90;95484.00;;;;5031282;28;20199;-56
2023/07/28 08:03:22;;;;;;;1.07;1.07;;;;;19.00;95492.00;;;;5030514;28;20262;-56
2023/07/28 08:05:50;;;;;;;1.13;0.80;;;;;19.20;95496.00;;;;5046978;28;20208;-56
2023/07/28 08:08:19;;;;;;;0.97;0.93;;;;;19.30;95497.00;;;;5050242;28;20223;-56
2023/07/28 08:10:47;;;;;;;0.70;0.70;;;;;19.30;95497.00;;;;5051238;28;20196;-56
2023/07/28 08:13:15;;;;;;;0.50;0.50;;;;;19.20;95494.00;;;;5050282;28;20204;-56
2023/07/28 08:15:44;;;;;;;1.70;1.03;;;;;19.40;95495.00;;;;5050817;28;20682;-56
2023/07/28 08:18:13;;;;;;;1.13;1.13;;;;;19.60;95500.00;;;;5050235;28;20194;-56
2023/07/28 08:20:42;;;;;;;0.93;0.93;;;;;19.80;95488.00;;;;5050936;28;20295;-56
2023/07/28 08:23:09;;;;;;;0.40;0.40;;;;;20.00;95505.00;;;;5032816;28;20207;-56
2023/07/28 08:25:37;;;;;;;0.70;0.70;;;;;20.10;95498.00;;;;5050501;28;20690;-56
2023/07/28 08:28:05;;;;;;;1.43;1.23;;;;;20.20;95508.00;;;;5050434;28;20558;-56
2023/07/28 08:30:33;;;;;;;1.53;0.80;;;;;20.20;95511.00;;;;5050914;28;20275;-56
2023/07/28 08:33:01;;;;;;;1.53;1.43;;;;;20.20;95508.00;;;;5050248;28;20196;-55
2023/07/28 08:35:29;;;;;;;0.50;0.50;;;;;20.50;95507.00;;;;5050696;28;20219;-56
2023/07/28 08:37:58;;;;;;;0.63;0.63;;;;;20.50;95502.00;;;;5049944;28;20196;-55
2023/07/28 08:40:27;;;;;;;1.03;0.80;;;;;21.10;95506.00;;;;5050831;28;20212;-56
2023/07/28 08:42:55;;;;;;;0.40;0.40;;;;;21.10;95508.00;;;;5032428;28;20204;-55
2023/07/28 08:45:24;;;;;;;1.17;0.60;;;;;21.10;95503.00;;;;5050217;28;20192;-56
2023/07/28 08:47:52;;;;;;;0.40;0.40;;;;;21.20;95515.00;;;;5050035;28;20678;-56
2023/07/28 08:50:19;;;;;;;0.80;0.80;;;;;21.40;95509.00;;;;5050254;28;20317;-56
2023/07/28 08:52:49;;;;;;;0.50;0.50;;;;;21.10;95509.00;;;;5050331;28;20210;-56
2023/07/28 08:55:18;;;;;;;0.50;0.50;;;;;20.90;95531.00;;;;5050171;28;20230;-56
2023/07/28 08:57:45;;;;;;;0.40;0.40;;;;;20.90;95534.00;;;;5050225;28;20238;-56
2023/07/28 09:00:14;;;;;;;0.77;0.77;;;;;20.70;95538.00;;;;5050189;28;20215;-56
2023/07/28 09:02:42;;;;;;;0.70;0.70;;;;;20.80;95534.00;;;;5037064;28;20694;-56
2023/07/28 09:05:19;;;;;;;0.40;0.40;;;;;20.30;95537.00;;;;5030190;28;20197;-56
2023/07/28 09:07:47;;;;;;;0.50;0.50;;;;;20.40;95551.00;;;;5029785;28;20236;-56
2023/07/28 09:10:14;;;;;;;0.70;0.70;;;;;20.10;95551.00;;;;5033595;28;20207;-56
2023/07/28 09:12:51;;;;;;;0.80;0.80;;;;;20.10;95546.00;;;;5048093;28;20275;-56
2023/07/28 09:15:19;;;;;;;0.93;0.83;;;;;20.20;95539.00;;;;5053941;28;20572;-56
2023/07/28 09:17:47;;;;;;;0.70;0.70;;;;;20.50;95532.00;;;;5053499;28;20226;-56
2023/07/28 09:20:16;;;;;;;0.80;0.80;;;;;20.50;95549.00;;;;5035564;28;20227;-56
2023/07/28 09:22:44;;;;;;;0.40;0.40;;;;;20.30;95540.00;;;;5051505;28;20548;-56
2023/07/28 09:25:16;;;;;;;0.53;0.53;;;;;20.30;95569.00;;;;5033163;28;20217;-56
2023/07/28 09:27:52;;;;;;;0.40;0.40;;;;;20.20;95547.00;;;;5033752;28;20656;-56
2023/07/28 09:30:21;;;;;;;0.40;0.40;;;;;20.20;95561.00;;;;5033025;28;20207;-56
2023/07/28 09:32:49;;;;;;;0.87;0.87;;;;;20.00;95559.00;;;;5032873;28;20192;-56
2023/07/28 09:35:18;;;;;;;0.53;0.53;;;;;19.80;95559.00;;;;5051947;28;20216;-56
2023/07/28 09:37:48;;;;;;;0.40;0.40;;;;;19.80;95555.00;;;;5049269;28;20236;-56
2023/07/28 09:40:17;;;;;;;0.70;0.70;;;;;20.00;95552.00;;;;5032844;28;20290;-56
2023/07/28 09:42:49;;;;;;;0.73;0.73;;;;;20.10;95550.00;;;;5048842;28;20203;-56
2023/07/28 09:45:18;;;;;;;0.50;0.50;;;;;20.00;95548.00;;;;5053023;28;20210;-56
2023/07/28 09:47:47;;;;;;;0.47;0.47;;;;;20.30;95549.00;;;;5053277;28;20251;-56
2023/07/28 09:50:17;;;;;;;0.50;0.50;;;;;20.50;95553.00;;;;5052555;28;20667;-56
2023/07/28 09:52:50;;;;;;;0.60;0.60;;;;;20.70;95550.00;;;;5053523;28;20578;-56
2023/07/28 09:55:19;;;;;;;0.60;0.60;;;;;21.20;95543.00;;;;5052422;28;20215;-56
2023/07/28 09:57:51;;;;;;;0.67;0.67;;;;;21.20;95542.00;;;;5053252;28;20224;-57
2023/07/28 10:00:22;;;;;;;0.70;0.70;;;;;21.70;95538.00;;;;5052912;28;20235;-56
2023/07/28 10:02:51;;;;;;;0.50;0.50;;;;;22.00;95539.00;;;;5033529;28;20594;-56
2023/07/28 10:05:18;;;;;;;0.50;0.50;;;;;22.30;95545.00;;;;5036467;28;20192;-56
2023/07/28 10:07:46;;;;;;;0.50;0.50;;;;;22.30;95559.00;;;;5052491;28;20286;-56
2023/07/28 10:10:17;;;;;;;0.40;0.40;;;;;22.30;95547.00;;;;5038554;28;20196;-57
2023/07/28 10:12:47;;;;;;;0.60;0.60;;;;;22.10;95551.00;;;;5014918;28;20203;-56
2023/07/28 10:15:16;;;;;;;0.50;0.50;;;;;21.70;95551.00;;;;5032722;28;20196;-56
2023/07/28 10:17:52;;;;;;;0.75;0.75;;;;;21.70;95549.00;;;;5032698;28;20213;-56
2023/07/28 10:20:35;;;;;;;0.90;0.90;;;;;21.70;95555.00;;;;5020661;28;20234;-56
2023/07/28 10:23:08;;;;;;;0.93;0.93;;;;;21.60;95544.00;;;;5052743;28;20196;-56
2023/07/28 10:25:36;;;;;;;4.05;1.05;;;;;21.30;95552.00;;;;5052665;28;20196;-56
2023/07/28 10:28:05;;;;;;;0.88;0.88;;;;;21.20;95552.00;;;;5036710;28;20635;-56
2023/07/28 10:30:38;;;;;;;0.60;0.60;;;;;21.40;95556.00;;;;5052625;28;20284;-56
2023/07/28 10:33:07;;;;;;;0.60;0.60;;;;;21.70;95557.00;;;;5038412;28;20635;-56
2023/07/28 10:35:34;;;;;;;0.57;0.57;;;;;21.80;95557.00;;;;5052009;28;20248;-56
2023/07/28 10:38:31;;;;;;;0.57;0.57;;;;;21.70;95550.00;;;;5051841;28;20203;-56
2023/07/28 10:41:10;;;;;;;1.92;0.80;;;;;22.20;95552.00;;;;5032005;28;20200;-57
2023/07/28 10:43:39;;;;;;;0.70;0.70;;;;;22.00;95563.00;;;;5031353;28;20197;-55
2023/07/28 10:46:08;;;;;;;0.65;0.65;;;;;21.60;95556.00;;;;5030536;28;20244;-56
2023/07/28 10:48:39;;;;;;;0.93;0.93;;;;;21.60;95554.00;;;;5032274;28;20201;-56
2023/07/28 10:51:06;;;;;;;0.95;0.95;;;;;21.80;95558.00;;;;5031874;28;20655;-56
2023/07/28 10:53:34;;;;;;;0.60;0.60;;;;;21.70;95574.00;;;;5031988;28;20193;-56
2023/07/28 10:56:04;;;;;;;0.50;0.50;;;;;21.70;95572.00;;;;5031765;28;20259;-57
2023/07/28 10:58:34;;;;;;;0.70;0.70;;;;;21.40;95568.00;;;;5031476;28;20740;-60
2023/07/28 11:01:01;;;;;;;0.60;0.60;;;;;21.70;95575.00;;;;5031324;28;20200;-56
2023/07/28 11:03:30;;;;;;;1.10;0.90;;;;;21.60;95578.00;;;;5031532;28;20204;-56
2023/07/28 11:05:59;;;;;;;0.63;0.63;;;;;21.30;95575.00;;;;5045653;28;20215;-56
2023/07/28 11:08:27;;;;;;;0.70;0.70;;;;;21.60;95585.00;;;;5051058;28;20196;-56
2023/07/28 11:10:54;;;;;;;0.50;0.50;;;;;21.40;95597.00;;;;5041883;28;20196;-56
2023/07/28 11:13:25;;;;;;;0.87;0.83;;;;;21.20;95587.00;;;;5031041;28;20219;-56
2023/07/28 11:15:53;;;;;;;0.77;0.77;;;;;21.10;95588.00;;;;5031893;28;20235;-55
2023/07/28 11:18:21;;;;;;;0.65;0.65;;;;;21.00;95584.00;;;;5030913;28;20204;-55
2023/07/28 11:20:48;;;;;;;0.57;0.57;;;;;20.50;95595.00;;;;5031892;28;20203;-55
2023/07/28 11:23:17;;;;;;;0.93;0.93;;;;;20.40;95591.00;;;;5030744;28;20189;-55
2023/07/28 11:25:47;;;;;;;0.93;0.93;;;;;20.50;95598.00;;;;5031106;28;20304;-56
2023/07/28 11:28:14;;;;;;;1.00;1.00;;;;;20.40;95586.00;;;;5046427;28;20196;-56
2023/07/28 11:30:43;;;;;;;0.90;0.90;;;;;20.70;95585.00;;;;5051088;28;20211;-56
2023/07/28 11:33:12;;;;;;;0.70;0.70;;;;;20.80;95580.00;;;;5030941;28;20250;-56
2023/07/28 11:35:41;;;;;;;0.90;0.90;;;;;20.80;95587.00;;;;5030962;28;20197;-56
2023/07/28 11:38:09;;;;;;;1.33;1.23;;;;;20.90;95579.00;;;;5031109;28;20207;-56
2023/07/28 11:40:38;;;;;;;1.60;1.50;;;;;21.10;95576.00;;;;5031087;28;20196;-56
2023/07/28 11:43:06;;;;;;;0.50;0.50;;;;;21.00;95571.00;;;;5030889;28;20218;-56
2023/07/28 11:45:34;;;;;;;0.60;0.60;;;;;21.10;95570.00;;;;5031005;28;20286;-56
2023/07/28 11:48:03;;;;;;;0.60;0.60;;;;;21.20;95576.00;;;;5013234;28;20698;-56
2023/07/28 11:50:36;;;;;;;0.80;0.80;;;;;21.10;95565.00;;;;5030858;28;20224;-56
2023/07/28 11:53:04;;;;;;;0.40;0.40;;;;;21.70;95554.00;;;;5013271;28;20196;-57
2023/07/28 11:55:32;;;;;;;0.30;0.30;;;;;22.10;95572.00;;;;5031666;28;20228;-56
2023/07/28 11:58:04;;;;;;;0.47;0.47;;;;;21.30;95572.00;;;;5030473;28;20244;-56
2023/07/28 12:00:34;;;;;;;0.88;0.88;;;;;21.50;95569.00;;;;5031193;28;20276;-56
2023/07/28 12:03:10;;;;;;;0.80;0.80;;;;;21.30;95577.00;;;;5048882;28;20206;-57
2023/07/28 12:05:39;;;;;;;1.10;1.10;;;;;21.20;95575.00;;;;5050603;28;20231;-56
2023/07/28 12:08:07;;;;;;;0.80;0.80;;;;;21.40;95570.00;;;;5033706;28;20197;-56
2023/07/28 12:10:36;;;;;;;0.98;0.95;;;;;21.50;95572.00;;;;5045339;28;20188;-55
2023/07/28 12:13:10;;;;;;;1.27;0.80;;;;;21.50;95573.00;;;;5051146;28;20562;-56
2023/07/28 12:15:42;;;;;;;0.67;0.67;;;;;21.60;95568.00;;;;5050138;28;20200;-57
2023/07/28 12:18:14;;;;;;;1.05;0.70;;;;;21.40;95568.00;;;;5050815;28;20279;-55